FIMP

Sir Seewoosagur Ramgoolam International Airport

Port Louis, Mauritius
METAR FIMP 172100Z 33003KT 9999 VCSH SCT014 26/24 Q1013
Observed Flight Rules
Feb-17 @ 21:00 UTC (31 minutes ago) Visual Flight Rules
Wind Visibility Clouds
330° at 3 knots 10,000+ meters
  • Scattered at 1,400' AGL
Temperatures Readings
Current 26°C / 79°F
Dewpoint 24°C / 75°F
Humidity 89%
Altimeter 29.91" Hg
Pressure 1013 hPa
Elevation 57
METAR FIMP 172100Z 33003KT 9999 VCSH SCT014 26/24 Q1013
Observed Flight Rules
Feb-17 @ 21:00 UTC
(31 minutes ago)
VFR
Wind Visibility
330° at 3 knots 10,000+ meters
Clouds
  • Scattered at 1,400' AGL
Temperature Dewpoint
26°C / 79°F 24°C / 75°F
Humidity Altimeter Pressure
89% 29.91" Hg 1013 hPa